sensor_id;sensor_type;location;lat;lon;timestamp;pressure;altitude;pressure_sealevel;temperature;humidity
68994;BME280;56054;50.968;5.816;2023-03-04T00:00:11;101800.50;;;3.13;100.00
68994;BME280;56054;50.968;5.816;2023-03-04T00:03:21;101784.69;;;2.78;100.00
68994;BME280;56054;50.968;5.816;2023-03-04T00:06:32;101802.44;;;2.99;100.00
68994;BME280;56054;50.968;5.816;2023-03-04T00:09:39;101802.56;;;2.85;100.00
68994;BME280;56054;50.968;5.816;2023-03-04T00:12:52;101792.09;;;3.07;100.00
68994;BME280;56054;50.968;5.816;2023-03-04T00:15:59;101790.94;;;2.96;100.00
68994;BME280;56054;50.968;5.816;2023-03-04T00:19:08;101794.34;;;3.04;100.00
68994;BME280;56054;50.968;5.816;2023-03-04T00:22:15;101792.59;;;3.11;100.00
68994;BME280;56054;50.968;5.816;2023-03-04T00:25:22;101787.03;;;2.99;100.00
68994;BME280;56054;50.968;5.816;2023-03-04T00:28:29;101785.66;;;3.10;100.00
68994;BME280;56054;50.968;5.816;2023-03-04T00:31:36;101780.75;;;3.05;100.00
68994;BME280;56054;50.968;5.816;2023-03-04T00:34:46;101785.28;;;2.91;100.00
68994;BME280;56054;50.968;5.816;2023-03-04T00:37:53;101777.19;;;2.95;100.00
68994;BME280;56054;50.968;5.816;2023-03-04T00:41:02;101769.50;;;2.95;100.00
68994;BME280;56054;50.968;5.816;2023-03-04T00:44:11;101762.03;;;3.06;100.00
68994;BME280;56054;50.968;5.816;2023-03-04T00:47:21;101764.59;;;3.06;100.00
68994;BME280;56054;50.968;5.816;2023-03-04T00:50:54;101756.00;;;3.05;100.00
68994;BME280;56054;50.968;5.816;2023-03-04T00:54:07;101773.03;;;3.05;100.00
68994;BME280;56054;50.968;5.816;2023-03-04T00:57:33;101765.34;;;3.05;100.00
68994;BME280;56054;50.968;5.816;2023-03-04T01:00:46;101766.34;;;3.14;100.00
68994;BME280;56054;50.968;5.816;2023-03-04T01:03:52;101766.28;;;3.05;100.00
68994;BME280;56054;50.968;5.816;2023-03-04T01:07:11;101764.88;;;3.16;100.00
68994;BME280;56054;50.968;5.816;2023-03-04T01:10:22;101770.19;;;3.17;100.00
68994;BME280;56054;50.968;5.816;2023-03-04T01:13:29;101767.75;;;3.19;100.00
68994;BME280;56054;50.968;5.816;2023-03-04T01:17:01;101772.91;;;3.03;100.00
68994;BME280;56054;50.968;5.816;2023-03-04T01:24:51;101763.06;;;3.15;100.00
68994;BME280;56054;50.968;5.816;2023-03-04T01:28:33;101763.06;;;3.15;100.00
68994;BME280;56054;50.968;5.816;2023-03-04T01:32:21;101757.16;;;3.16;100.00
68994;BME280;56054;50.968;5.816;2023-03-04T01:36:31;101754.16;;;3.04;100.00
68994;BME280;56054;50.968;5.816;2023-03-04T01:40:04;101760.84;;;2.95;100.00
68994;BME280;56054;50.968;5.816;2023-03-04T01:43:37;101738.03;;;3.05;100.00
68994;BME280;56054;50.968;5.816;2023-03-04T01:47:10;101734.53;;;3.05;100.00
68994;BME280;56054;50.968;5.816;2023-03-04T01:50:32;101739.00;;;3.14;100.00
68994;BME280;56054;50.968;5.816;2023-03-04T01:53:40;101741.50;;;3.21;100.00
68994;BME280;56054;50.968;5.816;2023-03-04T01:56:54;101742.84;;;3.18;100.00
68994;BME280;56054;50.968;5.816;2023-03-04T02:00:30;101739.94;;;3.15;100.00
68994;BME280;56054;50.968;5.816;2023-03-04T02:03:38;101733.69;;;2.97;100.00
68994;BME280;56054;50.968;5.816;2023-03-04T02:07:12;101722.44;;;3.04;100.00
68994;BME280;56054;50.968;5.816;2023-03-04T02:10:19;101724.03;;;3.10;100.00
68994;BME280;56054;50.968;5.816;2023-03-04T02:13:41;101714.59;;;3.18;100.00
68994;BME280;56054;50.968;5.816;2023-03-04T02:16:58;101725.94;;;3.20;100.00
68994;BME280;56054;50.968;5.816;2023-03-04T02:27:18;101709.69;;;2.96;100.00
68994;BME280;56054;50.968;5.816;2023-03-04T02:30:38;101708.94;;;3.13;100.00
68994;BME280;56054;50.968;5.816;2023-03-04T02:42:59;101694.53;;;3.22;100.00
68994;BME280;56054;50.968;5.816;2023-03-04T02:58:00;101687.91;;;3.25;100.00
68994;BME280;56054;50.968;5.816;2023-03-04T03:01:09;101684.31;;;3.31;100.00
68994;BME280;56054;50.968;5.816;2023-03-04T03:04:24;101688.28;;;3.36;100.00
68994;BME280;56054;50.968;5.816;2023-03-04T03:07:31;101690.38;;;3.32;100.00
68994;BME280;56054;50.968;5.816;2023-03-04T03:10:38;101687.97;;;3.33;100.00
68994;BME280;56054;50.968;5.816;2023-03-04T03:13:47;101682.19;;;3.27;100.00
68994;BME280;56054;50.968;5.816;2023-03-04T03:16:57;101685.47;;;3.26;100.00
68994;BME280;56054;50.968;5.816;2023-03-04T03:20:05;101670.84;;;3.25;100.00
68994;BME280;56054;50.968;5.816;2023-03-04T03:23:16;101669.84;;;3.32;100.00
68994;BME280;56054;50.968;5.816;2023-03-04T03:26:26;101676.50;;;3.38;100.00
68994;BME280;56054;50.968;5.816;2023-03-04T03:29:33;101664.56;;;3.39;100.00
68994;BME280;56054;50.968;5.816;2023-03-04T03:33:11;101665.06;;;3.43;100.00
68994;BME280;56054;50.968;5.816;2023-03-04T03:36:28;101666.59;;;3.41;100.00
68994;BME280;56054;50.968;5.816;2023-03-04T03:39:35;101663.75;;;3.47;100.00
68994;BME280;56054;50.968;5.816;2023-03-04T03:42:57;101659.69;;;3.33;100.00
68994;BME280;56054;50.968;5.816;2023-03-04T03:46:30;101654.47;;;3.40;100.00
68994;BME280;56054;50.968;5.816;2023-03-04T03:50:08;101668.72;;;3.46;100.00
68994;BME280;56054;50.968;5.816;2023-03-04T03:53:14;101661.28;;;3.40;100.00
68994;BME280;56054;50.968;5.816;2023-03-04T03:56:52;101668.16;;;3.32;100.00
68994;BME280;56054;50.968;5.816;2023-03-04T03:59:59;101668.41;;;3.42;100.00
68994;BME280;56054;50.968;5.816;2023-03-04T04:03:32;101669.72;;;3.39;100.00
68994;BME280;56054;50.968;5.816;2023-03-04T04:06:39;101663.84;;;3.40;100.00
68994;BME280;56054;50.968;5.816;2023-03-04T04:10:09;101666.81;;;3.52;100.00
68994;BME280;56054;50.968;5.816;2023-03-04T04:13:16;101669.03;;;3.49;100.00
68994;BME280;56054;50.968;5.816;2023-03-04T04:16:23;101672.03;;;3.45;100.00
68994;BME280;56054;50.968;5.816;2023-03-04T04:19:32;101668.41;;;3.42;100.00
68994;BME280;56054;50.968;5.816;2023-03-04T04:22:41;101676.09;;;3.42;100.00
68994;BME280;56054;50.968;5.816;2023-03-04T04:25:48;101671.16;;;3.44;100.00
68994;BME280;56054;50.968;5.816;2023-03-04T04:28:56;101673.22;;;3.39;100.00
68994;BME280;56054;50.968;5.816;2023-03-04T04:32:04;101672.03;;;3.45;100.00
68994;BME280;56054;50.968;5.816;2023-03-04T04:35:27;101662.09;;;3.48;100.00
68994;BME280;56054;50.968;5.816;2023-03-04T04:38:34;101666.03;;;3.53;100.00
68994;BME280;56054;50.968;5.816;2023-03-04T04:42:11;101671.59;;;3.49;100.00
68994;BME280;56054;50.968;5.816;2023-03-04T04:45:18;101665.72;;;3.50;100.00
68994;BME280;56054;50.968;5.816;2023-03-04T04:48:25;101676.59;;;3.47;100.00
68994;BME280;56054;50.968;5.816;2023-03-04T04:51:37;101677.81;;;3.51;100.00
68994;BME280;56054;50.968;5.816;2023-03-04T04:54:44;101675.59;;;3.54;100.00
68994;BME280;56054;50.968;5.816;2023-03-04T04:57:51;101676.06;;;3.58;100.00
68994;BME280;56054;50.968;5.816;2023-03-04T05:00:58;101671.09;;;3.60;100.00
68994;BME280;56054;50.968;5.816;2023-03-04T05:04:11;101675.75;;;3.55;100.00
68994;BME280;56054;50.968;5.816;2023-03-04T05:07:18;101681.47;;;3.53;100.00
68994;BME280;56054;50.968;5.816;2023-03-04T05:10:25;101684.78;;;3.52;100.00
68994;BME280;56054;50.968;5.816;2023-03-04T05:13:33;101681.06;;;3.57;100.00
68994;BME280;56054;50.968;5.816;2023-03-04T05:16:39;101678.06;;;3.61;100.00
68994;BME280;56054;50.968;5.816;2023-03-04T05:19:51;101682.44;;;3.62;100.00
68994;BME280;56054;50.968;5.816;2023-03-04T05:23:02;101683.06;;;3.68;100.00
68994;BME280;56054;50.968;5.816;2023-03-04T05:29:42;101671.16;;;3.69;100.00
68994;BME280;56054;50.968;5.816;2023-03-04T05:32:48;101677.22;;;3.69;100.00
68994;BME280;56054;50.968;5.816;2023-03-04T05:36:02;101673.13;;;3.71;100.00
68994;BME280;56054;50.968;5.816;2023-03-04T05:39:09;101675.25;;;3.75;100.00
68994;BME280;56054;50.968;5.816;2023-03-04T05:42:42;101669.88;;;3.81;100.00
68994;BME280;56054;50.968;5.816;2023-03-04T05:45:53;101673.47;;;3.74;100.00
68994;BME280;56054;50.968;5.816;2023-03-04T05:49:06;101676.94;;;3.75;100.00
68994;BME280;56054;50.968;5.816;2023-03-04T05:52:17;101681.81;;;3.80;100.00
68994;BME280;56054;50.968;5.816;2023-03-04T05:55:50;101684.41;;;3.80;100.00
68994;BME280;56054;50.968;5.816;2023-03-04T05:59:02;101679.56;;;3.83;100.00
68994;BME280;56054;50.968;5.816;2023-03-04T06:02:09;101683.63;;;3.81;100.00
68994;BME280;56054;50.968;5.816;2023-03-04T06:05:42;101687.28;;;3.83;100.00
68994;BME280;56054;50.968;5.816;2023-03-04T06:08:49;101697.72;;;3.85;100.00
68994;BME280;56054;50.968;5.816;2023-03-04T06:11:56;101690.00;;;3.85;100.00
68994;BME280;56054;50.968;5.816;2023-03-04T06:15:06;101692.91;;;3.88;100.00
68994;BME280;56054;50.968;5.816;2023-03-04T06:18:13;101695.31;;;3.86;100.00
68994;BME280;56054;50.968;5.816;2023-03-04T06:21:20;101700.03;;;3.91;100.00
68994;BME280;56054;50.968;5.816;2023-03-04T06:24:27;101699.09;;;3.90;100.00
68994;BME280;56054;50.968;5.816;2023-03-04T06:27:36;101696.22;;;3.87;100.00
68994;BME280;56054;50.968;5.816;2023-03-04T06:30:51;101705.91;;;3.90;100.00
68994;BME280;56054;50.968;5.816;2023-03-04T06:33:57;101703.34;;;3.90;100.00
68994;BME280;56054;50.968;5.816;2023-03-04T06:37:04;101711.53;;;3.94;100.00
68994;BME280;56054;50.968;5.816;2023-03-04T06:40:17;101709.56;;;3.92;100.00
68994;BME280;56054;50.968;5.816;2023-03-04T06:43:24;101714.28;;;3.96;100.00
68994;BME280;56054;50.968;5.816;2023-03-04T06:50:41;101712.19;;;4.00;100.00
68994;BME280;56054;50.968;5.816;2023-03-04T06:53:51;101714.00;;;4.01;100.00
68994;BME280;56054;50.968;5.816;2023-03-04T06:56:58;101716.75;;;4.03;100.00
68994;BME280;56054;50.968;5.816;2023-03-04T07:00:09;101724.47;;;4.03;100.00
68994;BME280;56054;50.968;5.816;2023-03-04T07:03:21;101725.97;;;4.01;100.00
68994;BME280;56054;50.968;5.816;2023-03-04T07:06:31;101726.84;;;4.01;100.00
68994;BME280;56054;50.968;5.816;2023-03-04T07:09:39;101723.28;;;4.08;100.00
68994;BME280;56054;50.968;5.816;2023-03-04T07:12:46;101727.66;;;4.09;100.00
68994;BME280;56054;50.968;5.816;2023-03-04T07:16:06;101735.72;;;4.12;100.00
68994;BME280;56054;50.968;5.816;2023-03-04T07:19:17;101737.53;;;4.13;100.00
68994;BME280;56054;50.968;5.816;2023-03-04T07:22:34;101734.78;;;4.12;100.00
68994;BME280;56054;50.968;5.816;2023-03-04T07:25:42;101738.13;;;4.11;100.00
68994;BME280;56054;50.968;5.816;2023-03-04T07:28:49;101742.69;;;4.13;100.00
68994;BME280;56054;50.968;5.816;2023-03-04T07:31:56;101746.31;;;4.15;100.00
68994;BME280;56054;50.968;5.816;2023-03-04T07:35:23;101746.31;;;4.15;100.00
68994;BME280;56054;50.968;5.816;2023-03-04T07:38:31;101746.03;;;4.21;100.00
68994;BME280;56054;50.968;5.816;2023-03-04T07:41:39;101745.63;;;4.25;100.00
68994;BME280;56054;50.968;5.816;2023-03-04T07:44:47;101747.88;;;4.22;100.00
68994;BME280;56054;50.968;5.816;2023-03-04T07:48:19;101743.94;;;4.25;100.00
68994;BME280;56054;50.968;5.816;2023-03-04T07:51:27;101750.91;;;4.26;100.00
68994;BME280;56054;50.968;5.816;2023-03-04T07:54:59;101753.22;;;4.32;100.00
68994;BME280;56054;50.968;5.816;2023-03-04T07:58:07;101754.13;;;4.33;100.00
68994;BME280;56054;50.968;5.816;2023-03-04T08:01:16;101748.56;;;4.37;100.00
68994;BME280;56054;50.968;5.816;2023-03-04T08:04:26;101757.97;;;4.45;100.00
68994;BME280;56054;50.968;5.816;2023-03-04T08:07:38;101755.72;;;4.48;100.00
68994;BME280;56054;50.968;5.816;2023-03-04T08:10:45;101767.09;;;4.50;100.00
68994;BME280;56054;50.968;5.816;2023-03-04T08:13:52;101766.66;;;4.54;100.00
68994;BME280;56054;50.968;5.816;2023-03-04T08:16:59;101765.91;;;4.55;100.00
68994;BME280;56054;50.968;5.816;2023-03-04T08:20:07;101769.22;;;4.54;100.00
68994;BME280;56054;50.968;5.816;2023-03-04T08:23:15;101764.94;;;4.46;100.00
68994;BME280;56054;50.968;5.816;2023-03-04T08:26:49;101772.66;;;4.46;100.00
68994;BME280;56054;50.968;5.816;2023-03-04T08:30:07;101779.34;;;4.44;100.00
68994;BME280;56054;50.968;5.816;2023-03-04T08:33:17;101783.88;;;4.46;100.00
68994;BME280;56054;50.968;5.816;2023-03-04T08:36:36;101773.47;;;4.54;100.00
68994;BME280;56054;50.968;5.816;2023-03-04T08:40:21;101786.97;;;4.60;100.00
68994;BME280;56054;50.968;5.816;2023-03-04T08:43:43;101790.44;;;4.60;100.00
68994;BME280;56054;50.968;5.816;2023-03-04T08:47:16;101781.41;;;4.72;100.00
68994;BME280;56054;50.968;5.816;2023-03-04T08:50:47;101792.97;;;4.76;100.00
68994;BME280;56054;50.968;5.816;2023-03-04T08:54:20;101781.75;;;4.76;100.00
68994;BME280;56054;50.968;5.816;2023-03-04T08:57:37;101774.56;;;4.64;100.00
68994;BME280;56054;50.968;5.816;2023-03-04T09:00:50;101778.97;;;4.65;100.00
68994;BME280;56054;50.968;5.816;2023-03-04T09:04:21;101782.38;;;4.82;100.00
68994;BME280;56054;50.968;5.816;2023-03-04T09:07:32;101786.50;;;4.88;100.00
68994;BME280;56054;50.968;5.816;2023-03-04T09:10:44;101780.69;;;4.82;100.00
68994;BME280;56054;50.968;5.816;2023-03-04T09:13:57;101779.97;;;4.92;100.00
68994;BME280;56054;50.968;5.816;2023-03-04T09:17:13;101784.56;;;5.03;100.00
68994;BME280;56054;50.968;5.816;2023-03-04T09:20:21;101774.13;;;5.10;100.00
68994;BME280;56054;50.968;5.816;2023-03-04T09:23:33;101783.38;;;5.08;100.00
68994;BME280;56054;50.968;5.816;2023-03-04T09:26:41;101786.59;;;5.14;100.00
68994;BME280;56054;50.968;5.816;2023-03-04T09:29:48;101780.31;;;5.04;100.00
68994;BME280;56054;50.968;5.816;2023-03-04T09:32:54;101780.91;;;5.01;100.00
68994;BME280;56054;50.968;5.816;2023-03-04T09:36:07;101775.59;;;5.00;100.00
68994;BME280;56054;50.968;5.816;2023-03-04T09:39:13;101781.09;;;5.11;100.00
68994;BME280;56054;50.968;5.816;2023-03-04T09:42:36;101763.56;;;5.25;100.00
68994;BME280;56054;50.968;5.816;2023-03-04T09:45:50;101767.06;;;5.51;100.00
68994;BME280;56054;50.968;5.816;2023-03-04T09:48:59;101769.06;;;5.54;100.00
68994;BME280;56054;50.968;5.816;2023-03-04T09:52:46;101765.84;;;5.48;100.00
68994;BME280;56054;50.968;5.816;2023-03-04T09:56:22;101748.88;;;5.58;100.00
68994;BME280;56054;50.968;5.816;2023-03-04T10:06:56;101756.91;;;5.79;100.00
68994;BME280;56054;50.968;5.816;2023-03-04T10:10:19;101748.69;;;5.92;100.00
68994;BME280;56054;50.968;5.816;2023-03-04T10:17:18;101749.31;;;5.89;100.00
68994;BME280;56054;50.968;5.816;2023-03-04T10:24:24;101750.41;;;6.00;100.00
68994;BME280;56054;50.968;5.816;2023-03-04T10:27:31;101741.72;;;5.99;100.00
68994;BME280;56054;50.968;5.816;2023-03-04T10:34:23;101750.69;;;5.94;100.00
68994;BME280;56054;50.968;5.816;2023-03-04T10:38:00;101747.34;;;5.87;100.00
68994;BME280;56054;50.968;5.816;2023-03-04T10:44:27;101746.59;;;5.96;100.00
68994;BME280;56054;50.968;5.816;2023-03-04T10:47:34;101745.53;;;5.94;100.00
68994;BME280;56054;50.968;5.816;2023-03-04T10:50:42;101745.53;;;6.03;100.00
68994;BME280;56054;50.968;5.816;2023-03-04T10:57:37;101740.03;;;6.09;100.00
68994;BME280;56054;50.968;5.816;2023-03-04T11:01:09;101734.44;;;6.13;100.00
68994;BME280;56054;50.968;5.816;2023-03-04T11:04:36;101735.50;;;6.15;100.00
68994;BME280;56054;50.968;5.816;2023-03-04T11:07:52;101729.56;;;6.16;100.00
68994;BME280;56054;50.968;5.816;2023-03-04T11:11:00;101725.47;;;6.18;100.00
68994;BME280;56054;50.968;5.816;2023-03-04T11:18:52;101706.34;;;6.61;100.00
68994;BME280;56054;50.968;5.816;2023-03-04T11:22:02;101713.28;;;6.90;100.00
68994;BME280;56054;50.968;5.816;2023-03-04T11:25:30;101711.63;;;6.62;100.00
68994;BME280;56054;50.968;5.816;2023-03-04T11:32:40;101707.88;;;6.50;100.00
68994;BME280;56054;50.968;5.816;2023-03-04T11:39:45;101695.94;;;6.42;100.00
68994;BME280;56054;50.968;5.816;2023-03-04T11:43:29;101704.13;;;6.47;100.00
68994;BME280;56054;50.968;5.816;2023-03-04T11:46:47;101699.84;;;6.47;100.00
68994;BME280;56054;50.968;5.816;2023-03-04T11:57:33;101692.44;;;6.69;100.00
68994;BME280;56054;50.968;5.816;2023-03-04T12:04:55;101680.78;;;6.64;99.92
68994;BME280;56054;50.968;5.816;2023-03-04T12:08:49;101672.25;;;6.65;99.55
68994;BME280;56054;50.968;5.816;2023-03-04T12:22:45;101651.31;;;6.62;100.00
68994;BME280;56054;50.968;5.816;2023-03-04T12:33:53;101640.72;;;6.78;100.00
68994;BME280;56054;50.968;5.816;2023-03-04T12:37:37;101629.50;;;6.77;100.00
68994;BME280;56054;50.968;5.816;2023-03-04T12:52:04;101616.38;;;6.84;100.00
68994;BME280;56054;50.968;5.816;2023-03-04T12:55:21;101619.34;;;6.98;99.62
68994;BME280;56054;50.968;5.816;2023-03-04T12:58:37;101616.81;;;7.08;99.90
68994;BME280;56054;50.968;5.816;2023-03-04T13:02:10;101608.56;;;7.12;99.66
68994;BME280;56054;50.968;5.816;2023-03-04T13:08:54;101597.59;;;7.15;99.69
68994;BME280;56054;50.968;5.816;2023-03-04T13:12:20;101596.78;;;7.05;100.00
68994;BME280;56054;50.968;5.816;2023-03-04T13:15:38;101590.13;;;6.99;100.00
68994;BME280;56054;50.968;5.816;2023-03-04T13:18:46;101588.59;;;7.01;100.00
68994;BME280;56054;50.968;5.816;2023-03-04T13:21:53;101586.78;;;7.00;100.00
68994;BME280;56054;50.968;5.816;2023-03-04T13:25:30;101590.59;;;6.95;100.00
68994;BME280;56054;50.968;5.816;2023-03-04T13:28:37;101586.41;;;6.86;100.00
68994;BME280;56054;50.968;5.816;2023-03-04T13:32:10;101582.59;;;6.92;100.00
68994;BME280;56054;50.968;5.816;2023-03-04T13:38:59;101576.50;;;6.91;100.00
68994;BME280;56054;50.968;5.816;2023-03-04T13:42:37;101576.16;;;6.97;100.00
68994;BME280;56054;50.968;5.816;2023-03-04T13:45:44;101566.88;;;6.99;100.00
68994;BME280;56054;50.968;5.816;2023-03-04T13:52:36;101567.13;;;7.02;100.00
68994;BME280;56054;50.968;5.816;2023-03-04T13:59:37;101568.19;;;7.04;100.00
68994;BME280;56054;50.968;5.816;2023-03-04T14:02:45;101562.13;;;7.03;100.00
68994;BME280;56054;50.968;5.816;2023-03-04T14:06:28;101566.88;;;6.99;100.00
68994;BME280;56054;50.968;5.816;2023-03-04T14:09:35;101553.41;;;6.93;100.00
68994;BME280;56054;50.968;5.816;2023-03-04T14:12:54;101553.53;;;6.94;100.00
68994;BME280;56054;50.968;5.816;2023-03-04T14:16:07;101554.63;;;6.88;100.00
68994;BME280;56054;50.968;5.816;2023-03-04T14:22:38;101542.03;;;6.91;100.00
68994;BME280;56054;50.968;5.816;2023-03-04T14:26:09;101538.19;;;6.96;100.00
68994;BME280;56054;50.968;5.816;2023-03-04T14:29:24;101535.16;;;6.91;100.00
68994;BME280;56054;50.968;5.816;2023-03-04T14:32:37;101534.06;;;6.98;100.00
68994;BME280;56054;50.968;5.816;2023-03-04T14:35:53;101531.47;;;6.98;100.00
68994;BME280;56054;50.968;5.816;2023-03-04T14:39:06;101535.50;;;7.04;100.00
68994;BME280;56054;50.968;5.816;2023-03-04T14:42:24;101519.31;;;6.97;100.00
68994;BME280;56054;50.968;5.816;2023-03-04T14:45:54;101508.22;;;6.98;100.00
68994;BME280;56054;50.968;5.816;2023-03-04T14:49:28;101508.97;;;6.97;100.00
68994;BME280;56054;50.968;5.816;2023-03-04T14:52:45;101509.88;;;6.97;100.00
68994;BME280;56054;50.968;5.816;2023-03-04T14:56:05;101501.22;;;6.97;100.00
68994;BME280;56054;50.968;5.816;2023-03-04T14:59:37;101510.13;;;6.90;100.00
68994;BME280;56054;50.968;5.816;2023-03-04T15:03:37;101492.56;;;6.96;100.00
68994;BME280;56054;50.968;5.816;2023-03-04T15:06:52;101496.56;;;6.93;100.00
68994;BME280;56054;50.968;5.816;2023-03-04T15:10:18;101488.81;;;6.93;100.00
68994;BME280;56054;50.968;5.816;2023-03-04T15:13:58;101486.97;;;6.92;100.00
68994;BME280;56054;50.968;5.816;2023-03-04T15:17:23;101490.19;;;6.89;100.00
68994;BME280;56054;50.968;5.816;2023-03-04T15:24:34;101478.97;;;6.89;100.00
68994;BME280;56054;50.968;5.816;2023-03-04T15:27:54;101478.41;;;6.82;100.00
68994;BME280;56054;50.968;5.816;2023-03-04T15:31:03;101475.69;;;6.81;100.00
68994;BME280;56054;50.968;5.816;2023-03-04T15:34:32;101480.44;;;6.76;100.00
68994;BME280;56054;50.968;5.816;2023-03-04T15:37:39;101473.97;;;6.71;100.00
68994;BME280;56054;50.968;5.816;2023-03-04T15:40:59;101473.66;;;6.68;100.00
68994;BME280;56054;50.968;5.816;2023-03-04T15:44:17;101473.06;;;6.71;100.00
68994;BME280;56054;50.968;5.816;2023-03-04T15:47:26;101477.19;;;6.69;100.00
68994;BME280;56054;50.968;5.816;2023-03-04T15:50:53;101469.00;;;6.64;100.00
68994;BME280;56054;50.968;5.816;2023-03-04T15:54:02;101465.81;;;6.67;100.00
68994;BME280;56054;50.968;5.816;2023-03-04T15:57:22;101468.88;;;6.62;100.00
68994;BME280;56054;50.968;5.816;2023-03-04T16:00:30;101467.19;;;6.63;100.00
68994;BME280;56054;50.968;5.816;2023-03-04T16:03:37;101466.56;;;6.65;100.00
68994;BME280;56054;50.968;5.816;2023-03-04T16:06:53;101468.22;;;6.65;100.00
68994;BME280;56054;50.968;5.816;2023-03-04T16:10:24;101467.97;;;6.62;100.00
68994;BME280;56054;50.968;5.816;2023-03-04T16:13:37;101466.91;;;6.60;100.00
68994;BME280;56054;50.968;5.816;2023-03-04T16:16:44;101470.53;;;6.62;100.00
68994;BME280;56054;50.968;5.816;2023-03-04T16:19:52;101467.97;;;6.62;100.00
68994;BME280;56054;50.968;5.816;2023-03-04T16:23:27;101466.66;;;6.57;100.00
68994;BME280;56054;50.968;5.816;2023-03-04T16:27:14;101472.56;;;6.56;100.00
68994;BME280;56054;50.968;5.816;2023-03-04T16:30:28;101457.50;;;6.41;100.00
68994;BME280;56054;50.968;5.816;2023-03-04T16:33:36;101459.38;;;6.34;100.00
68994;BME280;56054;50.968;5.816;2023-03-04T16:36:52;101463.00;;;6.36;100.00
68994;BME280;56054;50.968;5.816;2023-03-04T16:40:12;101459.53;;;6.35;100.00
68994;BME280;56054;50.968;5.816;2023-03-04T16:43:32;101454.09;;;6.32;100.00
68994;BME280;56054;50.968;5.816;2023-03-04T16:46:55;101465.16;;;6.31;100.00
68994;BME280;56054;50.968;5.816;2023-03-04T16:50:27;101463.50;;;6.32;100.00
68994;BME280;56054;50.968;5.816;2023-03-04T16:54:02;101463.50;;;6.32;100.00
68994;BME280;56054;50.968;5.816;2023-03-04T16:57:09;101453.31;;;6.33;100.00
68994;BME280;56054;50.968;5.816;2023-03-04T17:00:42;101460.78;;;6.30;100.00
68994;BME280;56054;50.968;5.816;2023-03-04T17:03:54;101458.97;;;6.29;100.00
68994;BME280;56054;50.968;5.816;2023-03-04T17:07:00;101455.66;;;6.21;100.00
68994;BME280;56054;50.968;5.816;2023-03-04T17:10:13;101455.34;;;6.27;100.00
68994;BME280;56054;50.968;5.816;2023-03-04T17:13:27;101452.75;;;6.27;100.00
68994;BME280;56054;50.968;5.816;2023-03-04T17:16:37;101446.41;;;6.42;100.00
68994;BME280;56054;50.968;5.816;2023-03-04T17:20:02;101456.78;;;6.34;100.00
68994;BME280;56054;50.968;5.816;2023-03-04T17:23:10;101459.09;;;6.31;100.00
68994;BME280;56054;50.968;5.816;2023-03-04T17:26:21;101454.28;;;6.25;100.00
68994;BME280;56054;50.968;5.816;2023-03-04T17:29:38;101449.13;;;6.25;100.00
68994;BME280;56054;50.968;5.816;2023-03-04T17:32:46;101460.50;;;6.27;100.00
68994;BME280;56054;50.968;5.816;2023-03-04T17:35:52;101455.03;;;6.24;100.00
68994;BME280;56054;50.968;5.816;2023-03-04T17:39:00;101454.75;;;6.21;100.00
68994;BME280;56054;50.968;5.816;2023-03-04T17:42:08;101457.97;;;6.18;100.00
68994;BME280;56054;50.968;5.816;2023-03-04T17:45:14;101463.75;;;6.16;100.00
68994;BME280;56054;50.968;5.816;2023-03-04T17:48:22;101467.41;;;6.18;100.00
68994;BME280;56054;50.968;5.816;2023-03-04T17:51:31;101466.06;;;6.13;100.00
68994;BME280;56054;50.968;5.816;2023-03-04T17:54:44;101468.19;;;6.17;100.00
68994;BME280;56054;50.968;5.816;2023-03-04T17:57:50;101471.66;;;6.17;100.00
68994;BME280;56054;50.968;5.816;2023-03-04T18:01:16;101481.19;;;6.18;100.00
68994;BME280;56054;50.968;5.816;2023-03-04T18:04:28;101485.03;;;6.13;100.00
68994;BME280;56054;50.968;5.816;2023-03-04T18:07:37;101483.22;;;6.12;100.00
68994;BME280;56054;50.968;5.816;2023-03-04T18:10:52;101482.19;;;6.10;100.00
68994;BME280;56054;50.968;5.816;2023-03-04T18:14:02;101488.72;;;6.07;100.00
68994;BME280;56054;50.968;5.816;2023-03-04T18:17:09;101484.31;;;6.06;100.00
68994;BME280;56054;50.968;5.816;2023-03-04T18:20:21;101484.06;;;6.03;100.00
68994;BME280;56054;50.968;5.816;2023-03-04T18:23:58;101484.06;;;6.03;100.00
68994;BME280;56054;50.968;5.816;2023-03-04T18:27:07;101480.13;;;5.97;100.00
68994;BME280;56054;50.968;5.816;2023-03-04T18:30:23;101483.00;;;6.00;100.00
68994;BME280;56054;50.968;5.816;2023-03-04T18:33:35;101477.25;;;5.94;100.00
68994;BME280;56054;50.968;5.816;2023-03-04T18:36:42;101478.16;;;5.95;100.00
68994;BME280;56054;50.968;5.816;2023-03-04T18:39:48;101472.41;;;5.97;100.00
68994;BME280;56054;50.968;5.816;2023-03-04T18:42:57;101469.97;;;5.90;100.00
68994;BME280;56054;50.968;5.816;2023-03-04T18:46:57;101465.09;;;5.93;100.00
68994;BME280;56054;50.968;5.816;2023-03-04T18:50:51;101468.41;;;5.92;100.00
68994;BME280;56054;50.968;5.816;2023-03-04T19:12:47;101480.03;;;5.78;100.00
68994;BME280;56054;50.968;5.816;2023-03-04T19:16:20;101486.66;;;5.85;100.00
68994;BME280;56054;50.968;5.816;2023-03-04T19:20:05;101474.00;;;5.78;100.00
68994;BME280;56054;50.968;5.816;2023-03-04T19:23:18;101481.22;;;5.82;100.00
68994;BME280;56054;50.968;5.816;2023-03-04T19:26:26;101477.59;;;5.80;100.00
68994;BME280;56054;50.968;5.816;2023-03-04T19:29:38;101484.59;;;5.81;100.00
68994;BME280;56054;50.968;5.816;2023-03-04T19:32:45;101489.03;;;5.73;100.00
68994;BME280;56054;50.968;5.816;2023-03-04T19:35:52;101484.88;;;5.75;100.00
68994;BME280;56054;50.968;5.816;2023-03-04T19:38:59;101481.91;;;5.71;100.00
68994;BME280;56054;50.968;5.816;2023-03-04T19:42:09;101488.44;;;5.67;100.00
68994;BME280;56054;50.968;5.816;2023-03-04T19:45:16;101485.84;;;5.67;100.00